sensor_id;sensor_type;location;lat;lon;timestamp;P1;durP1;ratioP1;P2;durP2;ratioP2
4084;SDS011;2057;50.858;6.572;2022-12-20T01:42:12;3.00;;;2.23;;
4084;SDS011;2057;50.858;6.572;2022-12-20T01:47:07;5.50;;;2.37;;
4084;SDS011;2057;50.858;6.572;2022-12-20T01:49:43;2.60;;;2.20;;
4084;SDS011;2057;50.858;6.572;2022-12-20T01:55:06;2.27;;;2.07;;
4084;SDS011;2057;50.858;6.572;2022-12-20T02:00:12;5.83;;;3.60;;
4084;SDS011;2057;50.858;6.572;2022-12-20T02:02:38;2.40;;;2.07;;
4084;SDS011;2057;50.858;6.572;2022-12-20T02:05:05;3.57;;;2.40;;
4084;SDS011;2057;50.858;6.572;2022-12-20T02:07:31;4.40;;;2.73;;
4084;SDS011;2057;50.858;6.572;2022-12-20T02:09:59;3.57;;;2.20;;
4084;SDS011;2057;50.858;6.572;2022-12-20T02:12:28;3.73;;;2.37;;
4084;SDS011;2057;50.858;6.572;2022-12-20T02:26:14;5.23;;;2.80;;
4084;SDS011;2057;50.858;6.572;2022-12-20T02:31:43;4.70;;;2.50;;
4084;SDS011;2057;50.858;6.572;2022-12-20T05:38:40;7.77;;;3.27;;
4084;SDS011;2057;50.858;6.572;2022-12-20T05:41:06;3.47;;;1.80;;
4084;SDS011;2057;50.858;6.572;2022-12-20T05:43:32;6.20;;;2.23;;
4084;SDS011;2057;50.858;6.572;2022-12-20T05:45:57;4.90;;;2.23;;
4084;SDS011;2057;50.858;6.572;2022-12-20T05:48:23;3.43;;;2.90;;
4084;SDS011;2057;50.858;6.572;2022-12-20T05:50:48;2.73;;;2.53;;
4084;SDS011;2057;50.858;6.572;2022-12-20T05:53:14;5.13;;;3.00;;
4084;SDS011;2057;50.858;6.572;2022-12-20T05:55:42;3.47;;;2.47;;
4084;SDS011;2057;50.858;6.572;2022-12-20T05:58:08;5.67;;;2.93;;
4084;SDS011;2057;50.858;6.572;2022-12-20T06:00:37;5.50;;;2.40;;
4084;SDS011;2057;50.858;6.572;2022-12-20T06:03:02;3.97;;;2.93;;
4084;SDS011;2057;50.858;6.572;2022-12-20T06:05:28;6.23;;;2.00;;
4084;SDS011;2057;50.858;6.572;2022-12-20T06:07:54;2.67;;;2.47;;
4084;SDS011;2057;50.858;6.572;2022-12-20T06:10:19;4.17;;;3.00;;
4084;SDS011;2057;50.858;6.572;2022-12-20T06:12:44;5.83;;;2.60;;
4084;SDS011;2057;50.858;6.572;2022-12-20T06:15:10;8.70;;;2.63;;
4084;SDS011;2057;50.858;6.572;2022-12-20T06:17:35;2.87;;;2.30;;
4084;SDS011;2057;50.858;6.572;2022-12-20T06:20:00;5.83;;;2.80;;
4084;SDS011;2057;50.858;6.572;2022-12-20T06:22:26;3.67;;;3.30;;
4084;SDS011;2057;50.858;6.572;2022-12-20T06:24:51;7.10;;;2.27;;
4084;SDS011;2057;50.858;6.572;2022-12-20T06:27:16;6.80;;;2.37;;
4084;SDS011;2057;50.858;6.572;2022-12-20T06:29:42;5.90;;;2.27;;
4084;SDS011;2057;50.858;6.572;2022-12-20T06:32:15;5.90;;;2.87;;
4084;SDS011;2057;50.858;6.572;2022-12-20T06:34:41;3.90;;;2.67;;
4084;SDS011;2057;50.858;6.572;2022-12-20T06:37:06;6.63;;;3.13;;
4084;SDS011;2057;50.858;6.572;2022-12-20T06:39:32;6.63;;;2.60;;
4084;SDS011;2057;50.858;6.572;2022-12-20T06:41:57;4.43;;;2.17;;
4084;SDS011;2057;50.858;6.572;2022-12-20T06:44:22;5.73;;;2.77;;
4084;SDS011;2057;50.858;6.572;2022-12-20T06:46:48;1.90;;;1.57;;
4084;SDS011;2057;50.858;6.572;2022-12-20T06:49:13;2.00;;;1.80;;
4084;SDS011;2057;50.858;6.572;2022-12-20T06:51:38;3.93;;;1.80;;
4084;SDS011;2057;50.858;6.572;2022-12-20T06:54:04;3.23;;;2.20;;
4084;SDS011;2057;50.858;6.572;2022-12-20T06:56:29;2.80;;;2.20;;
4084;SDS011;2057;50.858;6.572;2022-12-20T06:58:55;4.00;;;2.00;;
4084;SDS011;2057;50.858;6.572;2022-12-20T07:01:20;3.63;;;1.90;;
4084;SDS011;2057;50.858;6.572;2022-12-20T07:03:45;7.70;;;2.77;;
4084;SDS011;2057;50.858;6.572;2022-12-20T07:06:11;4.50;;;2.07;;
4084;SDS011;2057;50.858;6.572;2022-12-20T07:08:36;3.43;;;1.93;;
4084;SDS011;2057;50.858;6.572;2022-12-20T07:11:02;2.23;;;1.67;;
4084;SDS011;2057;50.858;6.572;2022-12-20T07:13:31;3.73;;;1.37;;
4084;SDS011;2057;50.858;6.572;2022-12-20T07:15:57;4.87;;;1.83;;
4084;SDS011;2057;50.858;6.572;2022-12-20T07:18:23;2.40;;;1.77;;
4084;SDS011;2057;50.858;6.572;2022-12-20T07:20:49;7.00;;;2.00;;
4084;SDS011;2057;50.858;6.572;2022-12-20T07:23:14;5.30;;;1.83;;
4084;SDS011;2057;50.858;6.572;2022-12-20T07:25:39;1.90;;;1.30;;
4084;SDS011;2057;50.858;6.572;2022-12-20T07:28:05;7.73;;;1.90;;
4084;SDS011;2057;50.858;6.572;2022-12-20T07:30:30;4.83;;;1.97;;
4084;SDS011;2057;50.858;6.572;2022-12-20T07:32:56;2.10;;;1.70;;
4084;SDS011;2057;50.858;6.572;2022-12-20T07:35:21;2.13;;;1.70;;
4084;SDS011;2057;50.858;6.572;2022-12-20T07:37:46;2.80;;;2.00;;
4084;SDS011;2057;50.858;6.572;2022-12-20T07:40:12;3.13;;;1.77;;
4084;SDS011;2057;50.858;6.572;2022-12-20T07:42:38;1.77;;;1.60;;
4084;SDS011;2057;50.858;6.572;2022-12-20T07:45:04;4.37;;;2.10;;
4084;SDS011;2057;50.858;6.572;2022-12-20T07:47:29;1.50;;;1.30;;
4084;SDS011;2057;50.858;6.572;2022-12-20T07:49:55;5.93;;;1.27;;
4084;SDS011;2057;50.858;6.572;2022-12-20T07:52:20;1.43;;;1.30;;
4084;SDS011;2057;50.858;6.572;2022-12-20T07:54:52;8.63;;;1.73;;
4084;SDS011;2057;50.858;6.572;2022-12-20T07:57:28;6.17;;;1.60;;
4084;SDS011;2057;50.858;6.572;2022-12-20T08:00:04;5.30;;;1.73;;
4084;SDS011;2057;50.858;6.572;2022-12-20T08:02:31;3.43;;;1.57;;
4084;SDS011;2057;50.858;6.572;2022-12-20T08:05:03;2.70;;;1.90;;
4084;SDS011;2057;50.858;6.572;2022-12-20T08:07:31;2.50;;;2.10;;
4084;SDS011;2057;50.858;6.572;2022-12-20T08:09:57;7.03;;;1.60;;
4084;SDS011;2057;50.858;6.572;2022-12-20T08:12:22;5.57;;;2.13;;
4084;SDS011;2057;50.858;6.572;2022-12-20T08:14:53;5.27;;;2.00;;
4084;SDS011;2057;50.858;6.572;2022-12-20T08:17:20;2.97;;;1.47;;
4084;SDS011;2057;50.858;6.572;2022-12-20T08:19:46;5.70;;;2.07;;
4084;SDS011;2057;50.858;6.572;2022-12-20T08:22:12;3.60;;;2.20;;
4084;SDS011;2057;50.858;6.572;2022-12-20T08:24:38;7.27;;;2.10;;
4084;SDS011;2057;50.858;6.572;2022-12-20T08:27:04;3.03;;;1.87;;
4084;SDS011;2057;50.858;6.572;2022-12-20T08:29:29;2.30;;;2.03;;
4084;SDS011;2057;50.858;6.572;2022-12-20T08:31:55;2.77;;;1.77;;
4084;SDS011;2057;50.858;6.572;2022-12-20T08:34:21;4.97;;;2.13;;
4084;SDS011;2057;50.858;6.572;2022-12-20T08:36:46;4.30;;;2.33;;
4084;SDS011;2057;50.858;6.572;2022-12-20T08:39:11;4.80;;;2.00;;
4084;SDS011;2057;50.858;6.572;2022-12-20T08:41:36;4.70;;;1.50;;
4084;SDS011;2057;50.858;6.572;2022-12-20T08:44:03;3.53;;;2.00;;
4084;SDS011;2057;50.858;6.572;2022-12-20T08:46:29;5.50;;;2.10;;
4084;SDS011;2057;50.858;6.572;2022-12-20T08:48:54;6.47;;;2.70;;
4084;SDS011;2057;50.858;6.572;2022-12-20T08:51:19;11.13;;;1.93;;
4084;SDS011;2057;50.858;6.572;2022-12-20T08:53:45;9.30;;;2.13;;
4084;SDS011;2057;50.858;6.572;2022-12-20T08:56:11;3.93;;;1.83;;
4084;SDS011;2057;50.858;6.572;2022-12-20T08:58:41;2.30;;;2.10;;
4084;SDS011;2057;50.858;6.572;2022-12-20T09:01:08;8.20;;;1.80;;
4084;SDS011;2057;50.858;6.572;2022-12-20T09:03:36;8.03;;;2.50;;
4084;SDS011;2057;50.858;6.572;2022-12-20T09:06:07;4.20;;;2.00;;
4084;SDS011;2057;50.858;6.572;2022-12-20T09:08:35;2.10;;;1.60;;
4084;SDS011;2057;50.858;6.572;2022-12-20T09:11:11;3.37;;;1.83;;
4084;SDS011;2057;50.858;6.572;2022-12-20T09:13:39;4.40;;;2.00;;
4084;SDS011;2057;50.858;6.572;2022-12-20T09:16:06;3.77;;;2.77;;
4084;SDS011;2057;50.858;6.572;2022-12-20T09:18:32;3.27;;;1.67;;
4084;SDS011;2057;50.858;6.572;2022-12-20T09:20:59;9.87;;;2.67;;
4084;SDS011;2057;50.858;6.572;2022-12-20T09:23:25;4.77;;;1.97;;
4084;SDS011;2057;50.858;6.572;2022-12-20T09:25:51;1.63;;;1.47;;
4084;SDS011;2057;50.858;6.572;2022-12-20T09:28:17;7.97;;;1.93;;
4084;SDS011;2057;50.858;6.572;2022-12-20T09:30:42;2.93;;;1.47;;
4084;SDS011;2057;50.858;6.572;2022-12-20T09:33:08;5.00;;;1.80;;
4084;SDS011;2057;50.858;6.572;2022-12-20T09:35:33;3.83;;;1.77;;
4084;SDS011;2057;50.858;6.572;2022-12-20T09:37:59;2.80;;;1.60;;
4084;SDS011;2057;50.858;6.572;2022-12-20T09:40:25;3.37;;;1.70;;
4084;SDS011;2057;50.858;6.572;2022-12-20T09:42:55;3.67;;;1.90;;
4084;SDS011;2057;50.858;6.572;2022-12-20T09:45:23;3.43;;;1.47;;
4084;SDS011;2057;50.858;6.572;2022-12-20T09:47:51;3.20;;;1.87;;
4084;SDS011;2057;50.858;6.572;2022-12-20T09:50:17;3.03;;;2.03;;
4084;SDS011;2057;50.858;6.572;2022-12-20T09:52:54;2.57;;;1.60;;
4084;SDS011;2057;50.858;6.572;2022-12-20T09:58:09;1.60;;;1.50;;
4084;SDS011;2057;50.858;6.572;2022-12-20T10:00:49;2.07;;;1.57;;
4084;SDS011;2057;50.858;6.572;2022-12-20T10:03:36;10.73;;;1.70;;
4084;SDS011;2057;50.858;6.572;2022-12-20T10:06:07;2.27;;;1.50;;
4084;SDS011;2057;50.858;6.572;2022-12-20T10:08:58;4.20;;;1.80;;
4084;SDS011;2057;50.858;6.572;2022-12-20T10:14:47;3.17;;;1.70;;
4084;SDS011;2057;50.858;6.572;2022-12-20T10:17:08;10.43;;;2.00;;
4084;SDS011;2057;50.858;6.572;2022-12-20T10:22:50;5.00;;;1.60;;
4084;SDS011;2057;50.858;6.572;2022-12-20T10:25:22;4.80;;;2.20;;
4084;SDS011;2057;50.858;6.572;2022-12-20T10:27:54;11.43;;;2.80;;
4084;SDS011;2057;50.858;6.572;2022-12-20T10:30:22;6.40;;;1.60;;
4084;SDS011;2057;50.858;6.572;2022-12-20T10:32:50;6.00;;;1.73;;
4084;SDS011;2057;50.858;6.572;2022-12-20T10:35:22;2.20;;;1.50;;
4084;SDS011;2057;50.858;6.572;2022-12-20T10:38:00;14.87;;;1.90;;
4084;SDS011;2057;50.858;6.572;2022-12-20T10:42:56;3.57;;;1.43;;
4084;SDS011;2057;50.858;6.572;2022-12-20T10:47:48;3.00;;;1.63;;
4084;SDS011;2057;50.858;6.572;2022-12-20T10:50:20;6.90;;;2.07;;
4084;SDS011;2057;50.858;6.572;2022-12-20T10:55:35;3.17;;;2.10;;
4084;SDS011;2057;50.858;6.572;2022-12-20T10:58:22;2.87;;;1.50;;
4084;SDS011;2057;50.858;6.572;2022-12-20T11:01:13;5.30;;;2.00;;
4084;SDS011;2057;50.858;6.572;2022-12-20T11:03:52;6.50;;;1.47;;
4084;SDS011;2057;50.858;6.572;2022-12-20T11:06:21;9.30;;;1.73;;
4084;SDS011;2057;50.858;6.572;2022-12-20T11:08:49;4.70;;;1.67;;
4084;SDS011;2057;50.858;6.572;2022-12-20T11:11:16;4.63;;;1.87;;
4084;SDS011;2057;50.858;6.572;2022-12-20T11:13:48;13.30;;;1.60;;
4084;SDS011;2057;50.858;6.572;2022-12-20T11:22:00;3.87;;;1.43;;
4084;SDS011;2057;50.858;6.572;2022-12-20T11:27:48;6.10;;;1.70;;
4084;SDS011;2057;50.858;6.572;2022-12-20T11:36:09;4.60;;;2.13;;
4084;SDS011;2057;50.858;6.572;2022-12-20T11:38:56;13.77;;;2.13;;
4084;SDS011;2057;50.858;6.572;2022-12-20T11:41:37;2.30;;;1.50;;
4084;SDS011;2057;50.858;6.572;2022-12-20T11:52:33;3.83;;;2.97;;
4084;SDS011;2057;50.858;6.572;2022-12-20T11:55:25;3.93;;;1.93;;
4084;SDS011;2057;50.858;6.572;2022-12-20T12:00:16;8.27;;;3.80;;
4084;SDS011;2057;50.858;6.572;2022-12-20T12:02:44;5.03;;;4.40;;
4084;SDS011;2057;50.858;6.572;2022-12-20T12:11:46;8.53;;;2.93;;
4084;SDS011;2057;50.858;6.572;2022-12-20T12:14:28;4.07;;;2.47;;
4084;SDS011;2057;50.858;6.572;2022-12-20T12:17:07;2.53;;;2.10;;
4084;SDS011;2057;50.858;6.572;2022-12-20T12:19:41;7.47;;;2.47;;
4084;SDS011;2057;50.858;6.572;2022-12-20T12:22:12;27.10;;;18.07;;
4084;SDS011;2057;50.858;6.572;2022-12-20T12:24:45;9.23;;;6.80;;
4084;SDS011;2057;50.858;6.572;2022-12-20T12:27:26;9.07;;;5.90;;
4084;SDS011;2057;50.858;6.572;2022-12-20T12:29:52;14.70;;;7.17;;
4084;SDS011;2057;50.858;6.572;2022-12-20T12:43:56;7.90;;;4.00;;
4084;SDS011;2057;50.858;6.572;2022-12-20T12:46:31;7.13;;;4.00;;
4084;SDS011;2057;50.858;6.572;2022-12-20T12:49:11;11.13;;;3.13;;
4084;SDS011;2057;50.858;6.572;2022-12-20T12:51:42;6.00;;;2.50;;
4084;SDS011;2057;50.858;6.572;2022-12-20T12:54:16;6.13;;;3.07;;
4084;SDS011;2057;50.858;6.572;2022-12-20T12:56:49;4.73;;;2.10;;
4084;SDS011;2057;50.858;6.572;2022-12-20T13:15:00;12.67;;;3.43;;
4084;SDS011;2057;50.858;6.572;2022-12-20T13:17:47;3.17;;;2.10;;
4084;SDS011;2057;50.858;6.572;2022-12-20T13:20:46;2.77;;;1.73;;
4084;SDS011;2057;50.858;6.572;2022-12-20T13:25:38;3.17;;;2.40;;
4084;SDS011;2057;50.858;6.572;2022-12-20T13:36:28;6.20;;;2.23;;
4084;SDS011;2057;50.858;6.572;2022-12-20T13:38:56;2.70;;;2.00;;
4084;SDS011;2057;50.858;6.572;2022-12-20T13:41:34;5.37;;;2.23;;
4084;SDS011;2057;50.858;6.572;2022-12-20T13:44:08;2.33;;;1.67;;
4084;SDS011;2057;50.858;6.572;2022-12-20T13:49:40;7.77;;;4.60;;
4084;SDS011;2057;50.858;6.572;2022-12-20T13:54:38;6.80;;;2.50;;
4084;SDS011;2057;50.858;6.572;2022-12-20T13:57:05;4.37;;;2.23;;
4084;SDS011;2057;50.858;6.572;2022-12-20T13:59:32;8.20;;;5.73;;
4084;SDS011;2057;50.858;6.572;2022-12-20T14:01:59;4.80;;;2.50;;
4084;SDS011;2057;50.858;6.572;2022-12-20T14:04:37;4.97;;;2.57;;
4084;SDS011;2057;50.858;6.572;2022-12-20T14:07:05;3.40;;;1.60;;
4084;SDS011;2057;50.858;6.572;2022-12-20T14:09:31;4.43;;;3.73;;
4084;SDS011;2057;50.858;6.572;2022-12-20T14:12:02;9.20;;;3.40;;
4084;SDS011;2057;50.858;6.572;2022-12-20T14:14:30;7.53;;;1.80;;
4084;SDS011;2057;50.858;6.572;2022-12-20T14:22:37;4.40;;;1.90;;
4084;SDS011;2057;50.858;6.572;2022-12-20T14:25:10;2.67;;;2.10;;
4084;SDS011;2057;50.858;6.572;2022-12-20T14:27:40;9.83;;;2.03;;
4084;SDS011;2057;50.858;6.572;2022-12-20T14:30:23;4.93;;;1.97;;
4084;SDS011;2057;50.858;6.572;2022-12-20T14:32:51;6.50;;;2.33;;
4084;SDS011;2057;50.858;6.572;2022-12-20T14:35:19;6.50;;;2.77;;
4084;SDS011;2057;50.858;6.572;2022-12-20T14:37:51;9.57;;;2.97;;
4084;SDS011;2057;50.858;6.572;2022-12-20T14:40:21;5.43;;;1.83;;
4084;SDS011;2057;50.858;6.572;2022-12-20T14:42:46;4.03;;;1.70;;
4084;SDS011;2057;50.858;6.572;2022-12-20T14:47:37;5.93;;;2.50;;
4084;SDS011;2057;50.858;6.572;2022-12-20T14:50:23;2.43;;;2.17;;
4084;SDS011;2057;50.858;6.572;2022-12-20T14:52:56;1.73;;;1.37;;
4084;SDS011;2057;50.858;6.572;2022-12-20T14:55:36;16.63;;;2.70;;
4084;SDS011;2057;50.858;6.572;2022-12-20T14:58:28;3.50;;;2.53;;
4084;SDS011;2057;50.858;6.572;2022-12-20T15:00:56;6.50;;;3.67;;
4084;SDS011;2057;50.858;6.572;2022-12-20T15:03:51;8.70;;;4.77;;
4084;SDS011;2057;50.858;6.572;2022-12-20T15:09:08;4.77;;;3.33;;
4084;SDS011;2057;50.858;6.572;2022-12-20T15:11:34;4.27;;;1.70;;
4084;SDS011;2057;50.858;6.572;2022-12-20T15:14:01;3.87;;;2.10;;
4084;SDS011;2057;50.858;6.572;2022-12-20T15:16:34;6.33;;;2.33;;
4084;SDS011;2057;50.858;6.572;2022-12-20T15:19:00;6.60;;;2.10;;
4084;SDS011;2057;50.858;6.572;2022-12-20T15:23:55;4.70;;;2.43;;
4084;SDS011;2057;50.858;6.572;2022-12-20T15:26:23;2.70;;;1.90;;
4084;SDS011;2057;50.858;6.572;2022-12-20T15:28:50;3.70;;;2.13;;
4084;SDS011;2057;50.858;6.572;2022-12-20T15:31:16;9.20;;;1.97;;
4084;SDS011;2057;50.858;6.572;2022-12-20T15:33:43;5.57;;;1.50;;
4084;SDS011;2057;50.858;6.572;2022-12-20T15:36:16;4.47;;;2.30;;
4084;SDS011;2057;50.858;6.572;2022-12-20T15:38:43;2.53;;;1.87;;
4084;SDS011;2057;50.858;6.572;2022-12-20T15:41:22;1.90;;;1.60;;
4084;SDS011;2057;50.858;6.572;2022-12-20T15:43:50;6.53;;;1.60;;
4084;SDS011;2057;50.858;6.572;2022-12-20T15:46:18;2.47;;;1.87;;
4084;SDS011;2057;50.858;6.572;2022-12-20T15:48:43;4.67;;;2.00;;
4084;SDS011;2057;50.858;6.572;2022-12-20T15:53:57;3.47;;;1.73;;
4084;SDS011;2057;50.858;6.572;2022-12-20T15:56:24;6.13;;;1.47;;
4084;SDS011;2057;50.858;6.572;2022-12-20T15:58:50;4.10;;;1.93;;
4084;SDS011;2057;50.858;6.572;2022-12-20T16:01:26;3.60;;;2.13;;
4084;SDS011;2057;50.858;6.572;2022-12-20T16:03:56;6.57;;;2.67;;
4084;SDS011;2057;50.858;6.572;2022-12-20T16:06:21;3.30;;;2.07;;
4084;SDS011;2057;50.858;6.572;2022-12-20T16:08:47;2.30;;;1.60;;
4084;SDS011;2057;50.858;6.572;2022-12-20T16:11:31;6.77;;;2.10;;
4084;SDS011;2057;50.858;6.572;2022-12-20T16:13:57;4.83;;;2.03;;
4084;SDS011;2057;50.858;6.572;2022-12-20T16:16:24;3.07;;;2.33;;
4084;SDS011;2057;50.858;6.572;2022-12-20T16:19:00;4.13;;;1.97;;
4084;SDS011;2057;50.858;6.572;2022-12-20T16:21:27;3.37;;;1.90;;
4084;SDS011;2057;50.858;6.572;2022-12-20T16:23:56;2.63;;;1.50;;
4084;SDS011;2057;50.858;6.572;2022-12-20T16:26:22;5.83;;;2.10;;
4084;SDS011;2057;50.858;6.572;2022-12-20T16:28:49;4.10;;;1.60;;
4084;SDS011;2057;50.858;6.572;2022-12-20T16:31:28;8.27;;;2.53;;
4084;SDS011;2057;50.858;6.572;2022-12-20T16:33:56;6.77;;;2.10;;
4084;SDS011;2057;50.858;6.572;2022-12-20T16:36:22;6.40;;;2.37;;
4084;SDS011;2057;50.858;6.572;2022-12-20T16:38:49;10.97;;;4.77;;
4084;SDS011;2057;50.858;6.572;2022-12-20T16:43:42;8.67;;;3.30;;
4084;SDS011;2057;50.858;6.572;2022-12-20T16:46:11;4.50;;;3.33;;
4084;SDS011;2057;50.858;6.572;2022-12-20T16:48:39;6.80;;;2.40;;
4084;SDS011;2057;50.858;6.572;2022-12-20T16:51:39;7.43;;;2.13;;
4084;SDS011;2057;50.858;6.572;2022-12-20T16:56:26;3.70;;;1.80;;
4084;SDS011;2057;50.858;6.572;2022-12-20T16:58:52;4.17;;;3.07;;
4084;SDS011;2057;50.858;6.572;2022-12-20T17:01:18;6.37;;;1.90;;
4084;SDS011;2057;50.858;6.572;2022-12-20T17:03:47;3.60;;;2.10;;
4084;SDS011;2057;50.858;6.572;2022-12-20T17:06:13;3.10;;;1.90;;
4084;SDS011;2057;50.858;6.572;2022-12-20T17:08:40;2.50;;;1.77;;
4084;SDS011;2057;50.858;6.572;2022-12-20T17:13:41;16.10;;;2.70;;
4084;SDS011;2057;50.858;6.572;2022-12-20T17:16:08;3.33;;;2.50;;
4084;SDS011;2057;50.858;6.572;2022-12-20T17:18:36;14.03;;;2.03;;
4084;SDS011;2057;50.858;6.572;2022-12-20T17:21:03;5.53;;;2.30;;
4084;SDS011;2057;50.858;6.572;2022-12-20T17:23:36;5.73;;;2.50;;
4084;SDS011;2057;50.858;6.572;2022-12-20T17:26:02;5.33;;;2.40;;
4084;SDS011;2057;50.858;6.572;2022-12-20T17:28:28;7.57;;;2.40;;
4084;SDS011;2057;50.858;6.572;2022-12-20T17:30:54;8.30;;;3.47;;
4084;SDS011;2057;50.858;6.572;2022-12-20T17:33:19;7.37;;;3.43;;
4084;SDS011;2057;50.858;6.572;2022-12-20T17:35:44;11.10;;;2.90;;
4084;SDS011;2057;50.858;6.572;2022-12-20T17:38:10;5.43;;;2.30;;
4084;SDS011;2057;50.858;6.572;2022-12-20T17:40:35;3.00;;;1.60;;
4084;SDS011;2057;50.858;6.572;2022-12-20T17:43:00;5.83;;;2.07;;
4084;SDS011;2057;50.858;6.572;2022-12-20T17:45:30;6.00;;;2.00;;
4084;SDS011;2057;50.858;6.572;2022-12-20T17:47:59;11.83;;;5.20;;
4084;SDS011;2057;50.858;6.572;2022-12-20T17:50:24;4.50;;;2.60;;
4084;SDS011;2057;50.858;6.572;2022-12-20T17:52:50;4.10;;;1.93;;
4084;SDS011;2057;50.858;6.572;2022-12-20T17:55:17;5.97;;;2.20;;
4084;SDS011;2057;50.858;6.572;2022-12-20T17:57:44;8.40;;;2.70;;
4084;SDS011;2057;50.858;6.572;2022-12-20T18:00:18;8.67;;;2.13;;
4084;SDS011;2057;50.858;6.572;2022-12-20T18:02:46;1.70;;;1.60;;
4084;SDS011;2057;50.858;6.572;2022-12-20T18:05:12;3.47;;;1.93;;
4084;SDS011;2057;50.858;6.572;2022-12-20T18:07:38;6.03;;;2.80;;
4084;SDS011;2057;50.858;6.572;2022-12-20T18:10:03;6.73;;;2.47;;
4084;SDS011;2057;50.858;6.572;2022-12-20T18:12:29;2.50;;;2.30;;
4084;SDS011;2057;50.858;6.572;2022-12-20T18:14:54;2.90;;;2.30;;
4084;SDS011;2057;50.858;6.572;2022-12-20T18:17:19;9.23;;;4.90;;
4084;SDS011;2057;50.858;6.572;2022-12-20T18:19:45;11.00;;;4.20;;
4084;SDS011;2057;50.858;6.572;2022-12-20T18:22:10;9.33;;;4.13;;
4084;SDS011;2057;50.858;6.572;2022-12-20T18:24:37;7.03;;;2.67;;
4084;SDS011;2057;50.858;6.572;2022-12-20T18:27:03;3.70;;;2.40;;
4084;SDS011;2057;50.858;6.572;2022-12-20T18:29:28;10.03;;;4.47;;
4084;SDS011;2057;50.858;6.572;2022-12-20T18:31:53;11.23;;;5.37;;
4084;SDS011;2057;50.858;6.572;2022-12-20T18:34:19;6.73;;;3.10;;
4084;SDS011;2057;50.858;6.572;2022-12-20T18:36:44;3.50;;;2.27;;
4084;SDS011;2057;50.858;6.572;2022-12-20T18:39:10;4.37;;;2.73;;
4084;SDS011;2057;50.858;6.572;2022-12-20T18:41:36;7.23;;;1.83;;
4084;SDS011;2057;50.858;6.572;2022-12-20T18:44:03;3.37;;;2.03;;
4084;SDS011;2057;50.858;6.572;2022-12-20T18:46:30;3.60;;;2.47;;
4084;SDS011;2057;50.858;6.572;2022-12-20T18:48:57;7.67;;;2.93;;
4084;SDS011;2057;50.858;6.572;2022-12-20T18:51:24;5.13;;;2.60;;
4084;SDS011;2057;50.858;6.572;2022-12-20T18:53:52;5.83;;;2.73;;
4084;SDS011;2057;50.858;6.572;2022-12-20T18:56:20;2.90;;;1.87;;
4084;SDS011;2057;50.858;6.572;2022-12-20T18:58:49;6.10;;;3.00;;
4084;SDS011;2057;50.858;6.572;2022-12-20T19:01:16;3.10;;;2.10;;
4084;SDS011;2057;50.858;6.572;2022-12-20T19:03:43;5.93;;;2.63;;
4084;SDS011;2057;50.858;6.572;2022-12-20T19:06:09;4.93;;;2.67;;
4084;SDS011;2057;50.858;6.572;2022-12-20T19:08:35;3.40;;;2.77;;
4084;SDS011;2057;50.858;6.572;2022-12-20T19:11:08;5.10;;;2.60;;
4084;SDS011;2057;50.858;6.572;2022-12-20T19:13:35;4.77;;;2.30;;
4084;SDS011;2057;50.858;6.572;2022-12-20T19:16:04;2.40;;;2.10;;
4084;SDS011;2057;50.858;6.572;2022-12-20T19:18:31;4.20;;;2.50;;
4084;SDS011;2057;50.858;6.572;2022-12-20T19:21:03;4.07;;;1.90;;
4084;SDS011;2057;50.858;6.572;2022-12-20T19:23:39;3.00;;;2.07;;
4084;SDS011;2057;50.858;6.572;2022-12-20T19:26:06;4.77;;;1.77;;
4084;SDS011;2057;50.858;6.572;2022-12-20T19:28:33;2.20;;;2.00;;
4084;SDS011;2057;50.858;6.572;2022-12-20T19:31:06;6.70;;;2.20;;
4084;SDS011;2057;50.858;6.572;2022-12-20T19:33:36;2.30;;;2.10;;
4084;SDS011;2057;50.858;6.572;2022-12-20T19:36:09;3.00;;;2.23;;
4084;SDS011;2057;50.858;6.572;2022-12-20T19:38:43;4.47;;;2.00;;
4084;SDS011;2057;50.858;6.572;2022-12-20T19:41:09;5.00;;;2.50;;
4084;SDS011;2057;50.858;6.572;2022-12-20T19:43:35;2.47;;;2.27;;
4084;SDS011;2057;50.858;6.572;2022-12-20T19:46:01;2.17;;;1.97;;
4084;SDS011;2057;50.858;6.572;2022-12-20T19:48:26;3.87;;;2.43;;
4084;SDS011;2057;50.858;6.572;2022-12-20T19:51:02;6.47;;;3.90;;
4084;SDS011;2057;50.858;6.572;2022-12-20T19:53:29;19.47;;;8.10;;
4084;SDS011;2057;50.858;6.572;2022-12-20T19:55:54;17.33;;;7.77;;
4084;SDS011;2057;50.858;6.572;2022-12-20T19:58:20;19.53;;;8.73;;
4084;SDS011;2057;50.858;6.572;2022-12-20T20:00:46;17.83;;;9.00;;
4084;SDS011;2057;50.858;6.572;2022-12-20T20:03:12;26.50;;;8.83;;
4084;SDS011;2057;50.858;6.572;2022-12-20T20:05:37;44.87;;;16.07;;
4084;SDS011;2057;50.858;6.572;2022-12-20T20:08:03;36.13;;;11.50;;
4084;SDS011;2057;50.858;6.572;2022-12-20T20:10:28;23.03;;;12.60;;
4084;SDS011;2057;50.858;6.572;2022-12-20T20:12:55;10.80;;;7.30;;
4084;SDS011;2057;50.858;6.572;2022-12-20T20:15:20;3.97;;;3.17;;
4084;SDS011;2057;50.858;6.572;2022-12-20T20:17:45;5.33;;;2.40;;
4084;SDS011;2057;50.858;6.572;2022-12-20T20:20:11;4.60;;;2.37;;
4084;SDS011;2057;50.858;6.572;2022-12-20T20:22:36;3.17;;;2.70;;
4084;SDS011;2057;50.858;6.572;2022-12-20T20:25:02;4.40;;;2.77;;
4084;SDS011;2057;50.858;6.572;2022-12-20T20:27:27;9.43;;;2.90;;
4084;SDS011;2057;50.858;6.572;2022-12-20T20:29:53;4.37;;;2.40;;
4084;SDS011;2057;50.858;6.572;2022-12-20T20:32:18;3.40;;;2.10;;
4084;SDS011;2057;50.858;6.572;2022-12-20T20:34:43;6.50;;;2.30;;
4084;SDS011;2057;50.858;6.572;2022-12-20T20:37:09;7.43;;;2.70;;
4084;SDS011;2057;50.858;6.572;2022-12-20T20:39:34;4.53;;;2.70;;
4084;SDS011;2057;50.858;6.572;2022-12-20T20:41:59;7.63;;;2.57;;
4084;SDS011;2057;50.858;6.572;2022-12-20T20:44:25;7.03;;;2.63;;
4084;SDS011;2057;50.858;6.572;2022-12-20T20:46:50;2.83;;;2.40;;
4084;SDS011;2057;50.858;6.572;2022-12-20T20:49:15;4.10;;;2.63;;
4084;SDS011;2057;50.858;6.572;2022-12-20T20:51:43;9.33;;;2.60;;
4084;SDS011;2057;50.858;6.572;2022-12-20T20:54:09;3.80;;;2.37;;
4084;SDS011;2057;50.858;6.572;2022-12-20T20:56:34;3.63;;;3.00;;
4084;SDS011;2057;50.858;6.572;2022-12-20T20:59:00;6.33;;;3.10;;
4084;SDS011;2057;50.858;6.572;2022-12-20T21:01:25;5.80;;;2.80;;
4084;SDS011;2057;50.858;6.572;2022-12-20T21:03:50;20.27;;;2.87;;
4084;SDS011;2057;50.858;6.572;2022-12-20T21:06:15;5.70;;;2.60;;
4084;SDS011;2057;50.858;6.572;2022-12-20T21:08:41;3.40;;;2.43;;
4084;SDS011;2057;50.858;6.572;2022-12-20T21:11:06;4.23;;;2.93;;
4084;SDS011;2057;50.858;6.572;2022-12-20T21:13:33;5.20;;;3.80;;
4084;SDS011;2057;50.858;6.572;2022-12-20T21:16:05;3.33;;;2.27;;
4084;SDS011;2057;50.858;6.572;2022-12-20T21:18:31;4.93;;;2.90;;
4084;SDS011;2057;50.858;6.572;2022-12-20T21:20:57;4.13;;;2.80;;
4084;SDS011;2057;50.858;6.572;2022-12-20T21:23:22;4.90;;;2.93;;
4084;SDS011;2057;50.858;6.572;2022-12-20T21:25:54;4.50;;;3.03;;
4084;SDS011;2057;50.858;6.572;2022-12-20T21:28:23;2.70;;;2.50;;
4084;SDS011;2057;50.858;6.572;2022-12-20T21:30:56;8.30;;;3.40;;
4084;SDS011;2057;50.858;6.572;2022-12-20T21:33:25;3.40;;;2.53;;
4084;SDS011;2057;50.858;6.572;2022-12-20T21:36:00;3.40;;;3.10;;
4084;SDS011;2057;50.858;6.572;2022-12-20T21:38:28;6.83;;;3.27;;
4084;SDS011;2057;50.858;6.572;2022-12-20T21:43:26;10.00;;;2.40;;
4084;SDS011;2057;50.858;6.572;2022-12-20T21:45:52;9.17;;;3.20;;
4084;SDS011;2057;50.858;6.572;2022-12-20T21:48:17;5.37;;;2.50;;
4084;SDS011;2057;50.858;6.572;2022-12-20T21:50:43;7.40;;;2.73;;
4084;SDS011;2057;50.858;6.572;2022-12-20T21:53:09;3.80;;;2.97;;
4084;SDS011;2057;50.858;6.572;2022-12-20T21:55:34;5.20;;;2.70;;
4084;SDS011;2057;50.858;6.572;2022-12-20T21:57:59;5.40;;;3.30;;
4084;SDS011;2057;50.858;6.572;2022-12-20T22:00:25;5.60;;;2.80;;
4084;SDS011;2057;50.858;6.572;2022-12-20T22:02:50;15.87;;;2.97;;
4084;SDS011;2057;50.858;6.572;2022-12-20T22:05:15;7.40;;;3.33;;
4084;SDS011;2057;50.858;6.572;2022-12-20T22:07:41;7.67;;;2.83;;
4084;SDS011;2057;50.858;6.572;2022-12-20T22:10:06;5.97;;;2.33;;
4084;SDS011;2057;50.858;6.572;2022-12-20T22:12:32;9.97;;;3.10;;
4084;SDS011;2057;50.858;6.572;2022-12-20T22:14:57;7.13;;;2.37;;
4084;SDS011;2057;50.858;6.572;2022-12-20T22:17:23;7.87;;;3.07;;
4084;SDS011;2057;50.858;6.572;2022-12-20T22:19:48;7.90;;;2.40;;
4084;SDS011;2057;50.858;6.572;2022-12-20T22:22:14;9.70;;;3.40;;
4084;SDS011;2057;50.858;6.572;2022-12-20T22:24:42;6.53;;;2.90;;
4084;SDS011;2057;50.858;6.572;2022-12-20T22:27:07;4.50;;;2.63;;
4084;SDS011;2057;50.858;6.572;2022-12-20T22:29:33;3.23;;;2.73;;